createdAt,value
2023-03-29T00:01:00.433Z,101210.72
2023-03-29T00:03:30.558Z,101197.44
2023-03-29T00:06:02.898Z,101190.94
2023-03-29T00:08:31.328Z,101182.09
2023-03-29T00:11:01.629Z,101181.88
2023-03-29T00:13:29.695Z,101180.38
2023-03-29T00:15:57.522Z,101184.31
2023-03-29T00:18:25.329Z,101174.72
2023-03-29T00:20:56.435Z,101173.56
2023-03-29T00:23:24.988Z,101162.16
2023-03-29T00:25:54.064Z,101156.72
2023-03-29T00:28:23.401Z,101149.81
2023-03-29T00:30:51.258Z,101148.53
2023-03-29T00:33:20.692Z,101140.59
2023-03-29T00:35:49.287Z,101131.34
2023-03-29T00:38:17.116Z,101137.78
2023-03-29T00:40:47.106Z,101129.84
2023-03-29T00:43:16.720Z,101122.13
2023-03-29T00:45:45.640Z,101125.44
2023-03-29T00:48:16.458Z,101119.47
2023-03-29T00:50:48.820Z,101117.69
2023-03-29T00:53:21.397Z,101114.41
2023-03-29T00:55:53.941Z,101122.38
2023-03-29T00:58:27.468Z,101120.59
2023-03-29T01:01:02.145Z,101123.22
2023-03-29T01:03:35.090Z,101112.56
2023-03-29T01:06:07.503Z,101113.78
2023-03-29T01:08:42.437Z,101115.69
2023-03-29T01:11:16.066Z,101112.19
2023-03-29T01:13:51.984Z,101105.97
2023-03-29T01:16:22.422Z,101101.06
2023-03-29T01:18:52.158Z,101104.13
2023-03-29T01:21:27.738Z,101094.84
2023-03-29T01:24:11.459Z,101093.16
2023-03-29T01:26:51.037Z,101093.06
2023-03-29T01:29:25.668Z,101080.72
2023-03-29T01:31:58.359Z,101077.44
2023-03-29T01:34:31.135Z,101070.28
2023-03-29T01:37:05.745Z,101072.34
2023-03-29T01:39:35.457Z,101066.16
2023-03-29T01:42:37.907Z,101075.91
2023-03-29T01:45:15.478Z,101063.69
2023-03-29T01:47:51.441Z,101067.28
2023-03-29T01:50:26.049Z,101056.34
2023-03-29T01:53:24.109Z,101053.03
2023-03-29T01:58:54.573Z,101040.91
2023-03-29T02:01:29.848Z,101043.75
2023-03-29T02:04:04.449Z,101031.00
2023-03-29T02:06:37.365Z,101021.34
2023-03-29T02:09:06.966Z,101024.25
2023-03-29T02:11:36.719Z,101021.22
2023-03-29T02:14:04.549Z,101017.81
2023-03-29T02:16:37.411Z,101017.75
2023-03-29T02:19:07.690Z,101007.47
2023-03-29T02:21:41.480Z,101020.81
2023-03-29T02:24:15.218Z,101021.34
2023-03-29T02:26:43.337Z,101016.69
2023-03-29T02:29:11.609Z,101022.25
2023-03-29T02:31:46.469Z,101025.72
2023-03-29T02:34:21.168Z,101007.19
2023-03-29T02:36:51.841Z,101016.91
2023-03-29T02:39:20.073Z,100999.09
2023-03-29T02:41:50.517Z,100998.97
2023-03-29T02:44:22.426Z,100997.88
2023-03-29T02:46:56.632Z,100989.38
2023-03-29T02:49:24.879Z,100991.94
2023-03-29T02:51:54.997Z,100980.63
2023-03-29T02:54:29.724Z,100980.63
2023-03-29T02:56:59.678Z,100976.13
2023-03-29T02:59:29.731Z,100980.53
2023-03-29T03:01:59.269Z,100980.47
2023-03-29T03:04:29.557Z,100976.97
2023-03-29T03:06:57.329Z,100975.81
2023-03-29T03:09:25.558Z,100974.81
2023-03-29T03:11:53.760Z,100963.41
2023-03-29T03:14:28.111Z,100960.00
2023-03-29T03:17:02.392Z,100962.63
2023-03-29T03:19:34.437Z,100955.69
2023-03-29T03:22:03.448Z,100949.38
2023-03-29T03:24:32.660Z,100950.28
2023-03-29T03:27:00.639Z,100944.09
2023-03-29T03:29:28.954Z,100945.78
2023-03-29T03:32:17.564Z,100941.38
2023-03-29T03:34:48.178Z,100937.09
2023-03-29T03:37:15.933Z,100945.91
2023-03-29T03:39:47.522Z,100936.19
2023-03-29T03:42:16.049Z,100945.78
2023-03-29T03:44:45.636Z,100941.38
2023-03-29T03:47:30.644Z,100936.81
2023-03-29T03:50:14.444Z,100940.31
2023-03-29T03:52:45.100Z,100937.59
2023-03-29T03:55:14.185Z,100935.59
2023-03-29T03:57:44.949Z,100934.09
2023-03-29T04:00:20.266Z,100935.81
2023-03-29T04:03:06.910Z,100928.63
2023-03-29T04:05:40.070Z,100926.09
2023-03-29T04:08:08.945Z,100926.00
2023-03-29T04:11:15.225Z,100933.91
2023-03-29T04:13:43.777Z,100931.16
2023-03-29T04:19:51.458Z,100918.81
2023-03-29T04:22:21.448Z,100931.09
2023-03-29T04:24:49.700Z,100927.41
2023-03-29T04:27:36.173Z,100928.13
2023-03-29T04:30:10.413Z,100928.97
2023-03-29T04:32:57.490Z,100923.72
2023-03-29T04:35:27.199Z,100921.72
2023-03-29T04:37:55.523Z,100921.63
2023-03-29T04:40:24.030Z,100921.53
2023-03-29T04:43:07.573Z,100910.06
2023-03-29T04:45:42.235Z,100910.91
2023-03-29T04:48:15.474Z,100912.38
2023-03-29T04:50:48.381Z,100916.63
2023-03-29T04:53:19.857Z,100913.75
2023-03-29T04:55:48.301Z,100907.66
2023-03-29T04:58:26.105Z,100906.50
2023-03-29T05:00:57.492Z,100906.41
2023-03-29T05:03:37.683Z,100904.59
2023-03-29T05:06:16.899Z,100904.31
2023-03-29T05:08:45.212Z,100906.13
2023-03-29T05:11:26.477Z,100903.19
2023-03-29T05:13:56.457Z,100895.25
2023-03-29T05:16:29.983Z,100883.66
2023-03-29T05:18:58.701Z,100891.28
2023-03-29T05:21:33.330Z,100883.34
2023-03-29T05:24:05.459Z,100884.84
2023-03-29T05:26:51.635Z,100891.59
2023-03-29T05:29:20.029Z,100892.56
2023-03-29T05:31:54.021Z,100893.94
2023-03-29T05:34:23.372Z,100901.66
2023-03-29T05:36:59.093Z,100898.81
2023-03-29T05:39:31.445Z,100894.00
2023-03-29T05:42:00.422Z,100898.25
2023-03-29T05:44:31.418Z,100892.63
2023-03-29T05:47:13.845Z,100894.22
2023-03-29T05:49:42.901Z,100892.25
2023-03-29T05:52:15.907Z,100892.88
2023-03-29T05:54:43.778Z,100896.78
2023-03-29T05:57:12.922Z,100897.97
2023-03-29T05:59:42.233Z,100908.28
2023-03-29T06:02:11.558Z,100901.56
2023-03-29T06:04:44.676Z,100902.41
2023-03-29T06:07:34.601Z,100901.22
2023-03-29T06:10:21.233Z,100895.09
2023-03-29T06:12:57.839Z,100902.84
2023-03-29T06:15:26.349Z,100902.59
2023-03-29T06:18:06.158Z,100893.53
2023-03-29T06:20:35.712Z,100894.06
2023-03-29T06:23:10.646Z,100900.38
2023-03-29T06:25:39.429Z,100900.91
2023-03-29T06:28:07.566Z,100900.72
2023-03-29T06:30:40.309Z,100887.38
2023-03-29T06:33:08.176Z,100898.50
2023-03-29T06:36:09.556Z,100899.13
2023-03-29T06:38:38.703Z,100898.25
2023-03-29T06:41:30.418Z,100895.41
2023-03-29T06:43:58.219Z,100887.50
2023-03-29T06:46:33.027Z,100887.50
2023-03-29T06:49:06.098Z,100888.97
2023-03-29T06:51:57.080Z,100886.88
2023-03-29T06:54:26.904Z,100886.50
2023-03-29T06:57:01.820Z,100882.38
2023-03-29T06:59:31.324Z,100888.63
2023-03-29T07:02:12.371Z,100890.22
2023-03-29T07:04:52.473Z,100892.72
2023-03-29T07:07:34.444Z,100895.69
2023-03-29T07:10:16.487Z,100893.13
2023-03-29T07:13:08.712Z,100898.09
2023-03-29T07:15:37.043Z,100900.56
2023-03-29T07:18:13.421Z,100902.75
2023-03-29T07:20:42.423Z,100906.84
2023-03-29T07:23:14.885Z,100910.13
2023-03-29T07:25:44.666Z,100900.28
2023-03-29T07:28:13.458Z,100906.94
2023-03-29T07:30:41.538Z,100905.03
2023-03-29T07:33:14.718Z,100904.47
2023-03-29T07:36:05.492Z,100905.00
2023-03-29T07:38:38.524Z,100910.16
2023-03-29T07:41:17.451Z,100897.56
2023-03-29T07:43:47.682Z,100910.09
2023-03-29T07:46:20.943Z,100909.78
2023-03-29T07:48:50.087Z,100909.53
2023-03-29T07:51:18.603Z,100903.91
2023-03-29T07:53:53.488Z,100908.41
2023-03-29T07:56:49.450Z,100916.88
2023-03-29T07:59:30.349Z,100908.81
2023-03-29T08:02:24.541Z,100912.59
2023-03-29T08:05:00.476Z,100910.78
2023-03-29T08:07:31.406Z,100900.22
2023-03-29T08:10:05.753Z,100905.06
2023-03-29T08:12:53.463Z,100912.06
2023-03-29T08:15:28.667Z,100906.41
2023-03-29T08:17:56.710Z,100900.63
2023-03-29T08:20:27.405Z,100898.03
2023-03-29T08:22:58.184Z,100900.13
2023-03-29T08:25:40.547Z,100894.34
2023-03-29T08:28:12.292Z,100893.38
2023-03-29T08:30:50.445Z,100889.00
2023-03-29T08:33:18.362Z,100882.16
2023-03-29T08:35:53.092Z,100891.66
2023-03-29T08:38:25.363Z,100891.78
2023-03-29T08:40:53.786Z,100889.25
2023-03-29T08:43:42.342Z,100888.59
2023-03-29T08:46:19.500Z,100891.59
2023-03-29T08:48:53.694Z,100894.13
2023-03-29T08:51:55.440Z,100889.16
2023-03-29T08:54:28.461Z,100888.78
2023-03-29T08:57:45.304Z,100898.06
2023-03-29T09:00:23.506Z,100891.16
2023-03-29T09:02:53.873Z,100890.53
2023-03-29T09:05:31.465Z,100893.53
2023-03-29T09:08:16.042Z,100895.81
2023-03-29T09:10:48.697Z,100891.47
2023-03-29T09:13:31.050Z,100887.13
2023-03-29T09:16:09.021Z,100892.63
2023-03-29T09:18:50.932Z,100893.38
2023-03-29T09:21:24.529Z,100889.00
2023-03-29T09:24:15.512Z,100895.63
2023-03-29T09:27:00.345Z,100896.47
2023-03-29T09:29:47.704Z,100877.34
2023-03-29T09:32:23.233Z,100883.63
2023-03-29T09:35:14.123Z,100880.38
2023-03-29T09:37:42.565Z,100883.03
2023-03-29T09:40:14.560Z,100872.97
2023-03-29T09:43:05.072Z,100862.53
2023-03-29T09:45:33.301Z,100874.44
2023-03-29T09:48:08.196Z,100889.75
2023-03-29T09:50:39.149Z,100892.97
2023-03-29T09:53:10.616Z,100885.50
2023-03-29T09:55:46.307Z,100879.50
2023-03-29T09:58:35.998Z,100883.59
2023-03-29T10:01:09.625Z,100882.91
2023-03-29T10:03:41.371Z,100885.88
2023-03-29T10:06:14.823Z,100889.44
2023-03-29T10:08:50.835Z,100883.38
2023-03-29T10:11:23.136Z,100887.56
2023-03-29T10:13:54.816Z,100883.34
2023-03-29T10:16:24.609Z,100892.78
2023-03-29T10:18:55.633Z,100883.91
2023-03-29T10:21:24.293Z,100879.63
2023-03-29T10:23:59.328Z,100881.53
2023-03-29T10:26:30.776Z,100872.84
2023-03-29T10:29:02.479Z,100877.66
2023-03-29T10:31:31.264Z,100888.69
2023-03-29T10:34:05.637Z,100878.66
2023-03-29T10:36:33.730Z,100878.50
2023-03-29T10:39:06.402Z,100890.97
2023-03-29T10:41:36.238Z,100884.56
2023-03-29T10:44:05.540Z,100886.38
2023-03-29T10:46:41.644Z,100879.63
2023-03-29T10:49:40.947Z,100871.78
2023-03-29T10:52:13.612Z,100873.03
2023-03-29T10:54:41.413Z,100863.50
2023-03-29T10:57:15.727Z,100871.34
2023-03-29T10:59:53.008Z,100879.56
2023-03-29T11:02:36.939Z,100875.25
2023-03-29T11:05:20.607Z,100876.59
2023-03-29T11:08:03.611Z,100873.56
2023-03-29T11:10:40.459Z,100868.47
2023-03-29T11:13:16.612Z,100873.28
2023-03-29T11:15:55.653Z,100869.13
2023-03-29T11:18:43.905Z,100869.72
2023-03-29T11:21:21.064Z,100870.53
2023-03-29T11:23:55.478Z,100864.66
2023-03-29T11:26:31.054Z,100855.28
2023-03-29T11:29:04.391Z,100856.69
2023-03-29T11:31:40.627Z,100861.03
2023-03-29T11:34:24.192Z,100848.72
2023-03-29T11:37:00.940Z,100849.13
2023-03-29T11:39:38.546Z,100838.91
2023-03-29T11:42:13.474Z,100848.47
2023-03-29T11:44:42.265Z,100843.31
2023-03-29T11:47:13.818Z,100845.13
2023-03-29T11:49:45.357Z,100837.72
2023-03-29T11:52:19.174Z,100835.34
2023-03-29T11:54:53.150Z,100835.91
2023-03-29T11:57:27.269Z,100832.25
2023-03-29T12:00:01.638Z,100825.41
2023-03-29T12:02:34.197Z,100826.94
2023-03-29T12:05:12.601Z,100829.47
2023-03-29T12:07:49.027Z,100837.59
2023-03-29T12:10:20.335Z,100836.34
2023-03-29T12:12:56.482Z,100826.66
2023-03-29T12:15:26.997Z,100824.72
2023-03-29T12:18:03.155Z,100816.56
2023-03-29T12:20:35.862Z,100813.22
2023-03-29T12:23:07.205Z,100806.16
2023-03-29T12:25:42.244Z,100788.34
2023-03-29T12:28:29.099Z,100790.16
2023-03-29T12:31:08.451Z,100793.09
2023-03-29T12:33:59.883Z,100782.81
2023-03-29T12:37:11.684Z,100780.66
2023-03-29T12:40:21.069Z,100781.34
2023-03-29T12:43:09.985Z,100784.50
2023-03-29T12:46:02.310Z,100775.91
2023-03-29T12:48:33.091Z,100779.53
2023-03-29T12:51:03.192Z,100779.69
2023-03-29T12:53:34.546Z,100775.88
2023-03-29T12:56:15.302Z,100775.13
2023-03-29T12:58:53.041Z,100783.84
2023-03-29T13:01:29.751Z,100777.19
2023-03-29T13:04:14.229Z,100785.06
2023-03-29T13:07:05.944Z,100789.25
2023-03-29T13:09:37.450Z,100782.25
2023-03-29T13:12:10.135Z,100774.50
2023-03-29T13:14:42.643Z,100775.50
2023-03-29T13:17:20.263Z,100763.59
2023-03-29T13:19:54.192Z,100775.81
2023-03-29T13:22:36.672Z,100768.34
2023-03-29T13:25:16.817Z,100762.72
2023-03-29T13:27:55.225Z,100758.88
2023-03-29T13:30:30.697Z,100756.94
2023-03-29T13:33:50.280Z,100763.94
2023-03-29T13:36:33.016Z,100767.84
2023-03-29T13:39:06.874Z,100765.84
2023-03-29T13:41:48.590Z,100773.69
2023-03-29T13:44:29.677Z,100761.06
2023-03-29T13:47:06.829Z,100762.03
2023-03-29T13:49:38.449Z,100758.69
2023-03-29T13:52:16.140Z,100762.03
2023-03-29T13:54:52.808Z,100754.88
2023-03-29T13:57:24.531Z,100741.38
2023-03-29T13:59:58.522Z,100737.41
2023-03-29T14:02:35.590Z,100728.41
2023-03-29T14:05:04.845Z,100727.78
2023-03-29T14:07:38.485Z,100726.34
2023-03-29T14:10:07.879Z,100713.91
2023-03-29T14:12:41.715Z,100708.78
2023-03-29T14:15:22.017Z,100706.03
2023-03-29T14:17:50.235Z,100695.56
2023-03-29T14:20:17.904Z,100702.78
2023-03-29T14:22:47.468Z,100702.16
2023-03-29T14:25:19.574Z,100694.69
2023-03-29T14:27:47.160Z,100686.03
2023-03-29T14:30:22.679Z,100684.72
2023-03-29T14:32:52.324Z,100683.06
2023-03-29T14:35:21.993Z,100675.22
2023-03-29T14:37:50.095Z,100666.56
2023-03-29T14:40:21.021Z,100663.38
2023-03-29T14:42:50.835Z,100660.06
2023-03-29T14:45:24.186Z,100656.91
2023-03-29T14:47:52.702Z,100658.09
2023-03-29T14:50:24.986Z,100662.06
2023-03-29T14:52:53.244Z,100662.28
2023-03-29T14:55:23.676Z,100644.06
2023-03-29T14:57:55.672Z,100645.09
2023-03-29T15:00:29.942Z,100641.88
2023-03-29T15:03:00.477Z,100644.72
2023-03-29T15:05:36.387Z,100641.72
2023-03-29T15:08:08.709Z,100636.34
2023-03-29T15:10:38.641Z,100646.91
2023-03-29T15:13:08.615Z,100640.41
2023-03-29T15:15:39.342Z,100638.75
2023-03-29T15:18:08.958Z,100637.63
2023-03-29T15:20:40.299Z,100633.75
2023-03-29T15:23:21.491Z,100637.59
2023-03-29T15:25:53.848Z,100631.72
2023-03-29T15:28:28.046Z,100627.88
2023-03-29T15:31:07.760Z,100620.91
2023-03-29T15:33:38.648Z,100609.84
2023-03-29T15:36:09.458Z,100605.50
2023-03-29T15:38:44.199Z,100599.44
2023-03-29T15:41:13.657Z,100593.78
2023-03-29T15:43:42.160Z,100589.09
2023-03-29T15:46:14.077Z,100586.94
2023-03-29T15:48:42.000Z,100581.44
2023-03-29T15:51:10.899Z,100587.78
2023-03-29T15:53:38.534Z,100585.28
2023-03-29T15:56:10.048Z,100579.75
2023-03-29T15:58:38.724Z,100564.72
2023-03-29T16:01:13.389Z,100560.84
2023-03-29T16:03:46.245Z,100553.81
2023-03-29T16:06:15.986Z,100560.69
2023-03-29T16:08:43.558Z,100557.00
2023-03-29T16:11:12.510Z,100553.34
2023-03-29T16:13:40.142Z,100547.16
2023-03-29T16:16:10.473Z,100551.81
2023-03-29T16:18:38.461Z,100552.34
2023-03-29T16:21:12.326Z,100545.47
2023-03-29T16:23:40.599Z,100549.31
2023-03-29T16:26:13.164Z,100547.81
2023-03-29T16:28:42.634Z,100549.50
2023-03-29T16:31:12.614Z,100549.31
2023-03-29T16:33:40.661Z,100542.28
2023-03-29T16:36:11.932Z,100535.63
2023-03-29T16:38:41.460Z,100538.94
2023-03-29T16:41:12.234Z,100527.56
2023-03-29T16:43:39.861Z,100518.88
2023-03-29T16:46:10.088Z,100517.19
2023-03-29T16:48:38.013Z,100515.50
2023-03-29T16:51:06.830Z,100510.16
2023-03-29T16:53:36.084Z,100512.16
2023-03-29T16:56:05.340Z,100507.00
2023-03-29T16:58:33.482Z,100511.66
2023-03-29T17:01:09.559Z,100507.31
2023-03-29T17:03:37.566Z,100511.16
2023-03-29T17:06:06.728Z,100506.81
2023-03-29T17:08:36.589Z,100508.97
2023-03-29T17:11:06.196Z,100504.63
2023-03-29T17:13:34.188Z,100498.63
2023-03-29T17:16:02.595Z,100495.41
2023-03-29T17:18:30.777Z,100492.22
2023-03-29T17:20:59.944Z,100488.88
2023-03-29T17:23:27.594Z,100490.91
2023-03-29T17:25:56.625Z,100489.72
2023-03-29T17:28:24.591Z,100486.03
2023-03-29T17:30:52.775Z,100479.50
2023-03-29T17:33:22.962Z,100486.69
2023-03-29T17:35:50.565Z,100479.81
2023-03-29T17:38:19.314Z,100471.13
2023-03-29T17:40:53.008Z,100471.44
2023-03-29T17:43:22.511Z,100462.09
2023-03-29T17:45:52.624Z,100454.19
2023-03-29T17:48:21.506Z,100458.72
2023-03-29T17:50:49.042Z,100464.88
2023-03-29T17:53:16.611Z,100467.84
2023-03-29T17:55:44.134Z,100468.03
2023-03-29T17:58:12.661Z,100462.03
2023-03-29T18:00:41.636Z,100455.16
2023-03-29T18:03:09.479Z,100462.50
2023-03-29T18:05:37.976Z,100452.13
2023-03-29T18:08:06.000Z,100466.47
2023-03-29T18:10:33.912Z,100466.66
2023-03-29T18:13:02.624Z,100471.31
2023-03-29T18:15:30.266Z,100464.31
2023-03-29T18:17:59.312Z,100468.97
2023-03-29T18:20:27.058Z,100464.78
2023-03-29T18:22:54.730Z,100459.75
2023-03-29T18:25:22.493Z,100465.09
2023-03-29T18:27:50.277Z,100459.88
2023-03-29T18:30:18.520Z,100453.88
2023-03-29T18:32:46.942Z,100454.00
2023-03-29T18:35:16.534Z,100447.84
2023-03-29T18:37:47.062Z,100445.34
2023-03-29T18:40:15.742Z,100439.00
2023-03-29T18:42:43.301Z,100441.28
2023-03-29T18:45:11.963Z,100431.78
2023-03-29T18:47:39.688Z,100425.78
2023-03-29T18:50:09.514Z,100421.56
2023-03-29T18:52:38.588Z,100420.56
2023-03-29T18:55:07.517Z,100416.41
2023-03-29T18:57:35.133Z,100409.69
2023-03-29T19:00:05.938Z,100401.50
2023-03-29T19:02:33.596Z,100392.34
2023-03-29T19:05:01.444Z,100387.31
2023-03-29T19:07:30.375Z,100384.81
2023-03-29T19:09:59.678Z,100387.47
2023-03-29T19:12:27.368Z,100395.31
2023-03-29T19:14:55.000Z,100384.81
2023-03-29T19:17:22.676Z,100385.81
2023-03-29T19:19:50.332Z,100379.47
2023-03-29T19:22:18.609Z,100384.81
2023-03-29T19:24:46.124Z,100374.13
2023-03-29T19:27:15.071Z,100374.97
2023-03-29T19:29:42.631Z,100366.13
2023-03-29T19:32:10.374Z,100371.59
2023-03-29T19:34:38.245Z,100377.94
2023-03-29T19:37:05.881Z,100365.41
2023-03-29T19:39:34.523Z,100360.09
2023-03-29T19:42:02.020Z,100358.41
2023-03-29T19:44:30.948Z,100363.75
2023-03-29T19:46:59.295Z,100353.06
2023-03-29T19:49:27.032Z,100351.25
2023-03-29T19:51:55.470Z,100353.06
2023-03-29T19:54:23.386Z,100349.41
2023-03-29T19:56:52.564Z,100353.78
2023-03-29T19:59:21.005Z,100347.44
2023-03-29T20:01:52.521Z,100348.56
2023-03-29T20:04:22.511Z,100347.56
2023-03-29T20:06:50.434Z,100335.91
2023-03-29T20:09:18.879Z,100337.75
2023-03-29T20:11:47.490Z,100328.75
2023-03-29T20:14:15.359Z,100327.72
2023-03-29T20:16:43.969Z,100324.41
2023-03-29T20:19:13.848Z,100321.88
2023-03-29T20:21:41.642Z,100326.38
2023-03-29T20:24:09.535Z,100322.88
2023-03-29T20:26:37.420Z,100321.38
2023-03-29T20:29:06.106Z,100313.00
2023-03-29T20:31:33.713Z,100321.19
2023-03-29T20:34:02.500Z,100317.81
2023-03-29T20:36:31.878Z,100321.66
2023-03-29T20:39:00.210Z,100309.31
2023-03-29T20:41:27.848Z,100309.78
2023-03-29T20:43:59.529Z,100312.63
2023-03-29T20:46:33.668Z,100303.94
2023-03-29T20:49:01.610Z,100298.91
2023-03-29T20:51:32.040Z,100298.56
2023-03-29T20:54:04.646Z,100298.03
2023-03-29T20:56:34.212Z,100298.53
2023-03-29T20:59:03.813Z,100290.16
2023-03-29T21:01:31.488Z,100294.97
2023-03-29T21:03:59.277Z,100295.44
2023-03-29T21:06:26.862Z,100281.44
2023-03-29T21:08:57.520Z,100284.41
2023-03-29T21:11:25.039Z,100281.06
2023-03-29T21:13:54.514Z,100276.19
2023-03-29T21:16:22.179Z,100264.69
2023-03-29T21:18:49.813Z,100258.88
2023-03-29T21:21:17.444Z,100247.38
2023-03-29T21:23:46.535Z,100228.84
2023-03-29T21:26:15.568Z,100230.31
2023-03-29T21:28:43.085Z,100225.13
2023-03-29T21:31:11.127Z,100229.63
2023-03-29T21:33:38.664Z,100229.81
2023-03-29T21:36:08.105Z,100222.63
2023-03-29T21:38:36.738Z,100214.66
2023-03-29T21:41:04.572Z,100210.16
2023-03-29T21:43:35.518Z,100207.66
2023-03-29T21:46:03.036Z,100204.97
2023-03-29T21:48:31.247Z,100201.47
2023-03-29T21:50:58.830Z,100206.31
2023-03-29T21:53:27.131Z,100196.28
2023-03-29T21:55:55.431Z,100188.16
2023-03-29T21:58:23.173Z,100189.28
2023-03-29T22:00:52.190Z,100188.28
2023-03-29T22:03:20.296Z,100188.81
2023-03-29T22:05:57.172Z,100188.47
2023-03-29T22:08:26.136Z,100181.66
2023-03-29T22:10:58.512Z,100179.97
2023-03-29T22:13:27.989Z,100173.53
2023-03-29T22:15:59.042Z,100174.00
2023-03-29T22:18:27.707Z,100169.81
2023-03-29T22:20:55.321Z,100168.97
2023-03-29T22:23:24.686Z,100165.34
2023-03-29T22:25:53.979Z,100157.84
2023-03-29T22:28:21.509Z,100162.16
2023-03-29T22:30:50.025Z,100156.47
2023-03-29T22:33:18.906Z,100161.81
2023-03-29T22:35:46.499Z,100161.16
2023-03-29T22:38:14.310Z,100157.81
2023-03-29T22:40:41.867Z,100158.13
2023-03-29T22:43:09.419Z,100162.97
2023-03-29T22:45:37.185Z,100163.16
2023-03-29T22:48:05.535Z,100148.63
2023-03-29T22:50:34.601Z,100159.28
2023-03-29T22:53:02.114Z,100163.94
2023-03-29T22:55:29.912Z,100164.94
2023-03-29T22:57:57.570Z,100160.44
2023-03-29T23:00:25.120Z,100155.94
2023-03-29T23:02:53.115Z,100155.59
2023-03-29T23:05:22.535Z,100151.75
2023-03-29T23:07:52.293Z,100135.59
2023-03-29T23:10:20.791Z,100137.91
2023-03-29T23:12:49.448Z,100130.41
2023-03-29T23:15:17.841Z,100122.72
2023-03-29T23:17:45.455Z,100128.72
2023-03-29T23:20:13.796Z,100117.22
2023-03-29T23:22:41.359Z,100108.09
2023-03-29T23:25:10.746Z,100108.25
2023-03-29T23:27:38.371Z,100110.06
2023-03-29T23:30:08.793Z,100103.91
2023-03-29T23:32:36.535Z,100108.56
2023-03-29T23:35:04.924Z,100104.50
2023-03-29T23:37:32.624Z,100101.41
2023-03-29T23:40:00.343Z,100094.00
2023-03-29T23:42:30.327Z,100104.84
2023-03-29T23:44:58.178Z,100102.19
2023-03-29T23:47:27.535Z,100100.88
2023-03-29T23:49:57.506Z,100095.25
2023-03-29T23:52:25.072Z,100094.06
2023-03-29T23:54:52.639Z,100088.06
2023-03-29T23:57:21.204Z,100082.09
2023-03-29T23:59:52.582Z,100090.06
